createdAt,value
2023-02-11T00:01:44.312Z,77.04
2023-02-11T00:04:46.146Z,77.27
2023-02-11T00:07:48.106Z,77.69
2023-02-11T00:10:58.307Z,77.71
2023-02-11T00:14:02.744Z,78.34
2023-02-11T00:17:04.644Z,78.24
2023-02-11T00:20:08.294Z,77.48
2023-02-11T00:23:10.688Z,76.89
2023-02-11T00:26:17.833Z,76.61
2023-02-11T00:29:20.345Z,76.85
2023-02-11T00:32:22.241Z,76.61
2023-02-11T00:35:25.334Z,78.08
2023-02-11T00:38:27.419Z,77.91
2023-02-11T00:41:29.918Z,78.53
2023-02-11T00:44:34.384Z,78.54
2023-02-11T00:47:36.418Z,79.21
2023-02-11T00:50:38.416Z,79.47
2023-02-11T00:53:40.578Z,79.80
2023-02-11T00:56:42.468Z,79.54
2023-02-11T00:59:44.797Z,80.04
2023-02-11T01:02:46.679Z,80.51
2023-02-11T01:05:48.994Z,80.46
2023-02-11T01:08:51.281Z,79.98
2023-02-11T01:11:53.310Z,79.99
2023-02-11T01:14:55.258Z,80.88
2023-02-11T01:17:57.350Z,81.49
2023-02-11T01:20:59.243Z,81.21
2023-02-11T01:24:01.125Z,81.51
2023-02-11T01:27:03.501Z,81.59
2023-02-11T01:30:08.159Z,81.35
2023-02-11T01:33:10.146Z,81.72
2023-02-11T01:36:13.096Z,82.15
2023-02-11T01:39:15.037Z,81.44
2023-02-11T01:42:19.666Z,82.03
2023-02-11T01:45:43.020Z,81.67
2023-02-11T01:48:51.219Z,82.25
2023-02-11T01:52:03.670Z,81.70
2023-02-11T01:55:29.363Z,81.52
2023-02-11T01:58:32.737Z,81.84
2023-02-11T02:01:38.060Z,81.62
2023-02-11T02:04:51.780Z,82.45
2023-02-11T02:08:03.281Z,82.24
2023-02-11T02:11:07.452Z,81.75
2023-02-11T02:14:12.035Z,81.42
2023-02-11T02:17:38.966Z,81.69
2023-02-11T02:20:59.419Z,81.27
2023-02-11T02:24:22.267Z,81.62
2023-02-11T02:27:53.371Z,81.74
2023-02-11T02:30:55.342Z,82.12
2023-02-11T02:34:21.494Z,82.18
2023-02-11T02:38:05.192Z,82.69
2023-02-11T02:41:10.958Z,82.13
2023-02-11T02:44:12.826Z,82.90
2023-02-11T02:47:14.834Z,83.19
2023-02-11T02:50:25.024Z,83.40
2023-02-11T02:53:42.060Z,83.27
2023-02-11T02:56:43.820Z,83.29
2023-02-11T02:59:48.280Z,82.03
2023-02-11T03:03:06.424Z,82.58
2023-02-11T03:06:15.620Z,83.13
2023-02-11T03:09:25.395Z,83.27
2023-02-11T03:12:31.174Z,82.97
2023-02-11T03:15:43.659Z,83.23
2023-02-11T03:18:52.736Z,83.15
2023-02-11T03:21:56.099Z,83.55
2023-02-11T03:24:58.344Z,83.57
2023-02-11T03:28:10.535Z,84.16
2023-02-11T03:31:22.728Z,84.12
2023-02-11T03:34:36.435Z,83.80
2023-02-11T03:37:43.903Z,84.45
2023-02-11T03:40:46.329Z,83.87
2023-02-11T03:44:03.711Z,84.25
2023-02-11T03:47:09.189Z,84.63
2023-02-11T03:50:14.933Z,84.49
2023-02-11T03:53:18.173Z,84.36
2023-02-11T03:56:26.328Z,85.25
2023-02-11T03:59:29.061Z,85.91
2023-02-11T04:02:34.570Z,85.51
2023-02-11T04:05:37.179Z,85.69
2023-02-11T04:08:39.091Z,85.57
2023-02-11T04:11:41.022Z,85.25
2023-02-11T04:14:42.875Z,85.12
2023-02-11T04:17:44.730Z,84.91
2023-02-11T04:20:46.675Z,85.96
2023-02-11T04:23:48.795Z,85.39
2023-02-11T04:26:50.736Z,85.89
2023-02-11T04:29:52.728Z,85.57
2023-02-11T04:32:54.665Z,85.91
2023-02-11T04:35:56.551Z,85.98
2023-02-11T04:38:59.254Z,85.67
2023-02-11T04:42:01.107Z,85.82
2023-02-11T04:45:03.267Z,85.87
2023-02-11T04:48:09.022Z,86.13
2023-02-11T04:51:11.587Z,86.76
2023-02-11T04:54:13.467Z,86.98
2023-02-11T04:57:15.599Z,86.62
2023-02-11T05:00:17.656Z,86.10
2023-02-11T05:03:19.605Z,85.89
2023-02-11T05:06:21.788Z,86.55
2023-02-11T05:09:23.616Z,86.40
2023-02-11T05:12:25.622Z,86.07
2023-02-11T05:15:28.175Z,86.24
2023-02-11T05:18:30.272Z,86.07
2023-02-11T05:21:32.282Z,86.00
2023-02-11T05:24:34.771Z,85.60
2023-02-11T05:27:36.625Z,85.21
2023-02-11T05:30:38.870Z,86.09
2023-02-11T05:33:41.530Z,85.59
2023-02-11T05:36:43.458Z,85.20
2023-02-11T05:39:45.379Z,85.80
2023-02-11T05:42:47.287Z,85.39
2023-02-11T05:45:49.509Z,85.41
2023-02-11T05:48:51.920Z,85.38
2023-02-11T05:51:53.825Z,85.11
2023-02-11T05:54:55.782Z,85.71
2023-02-11T05:57:57.762Z,85.68
2023-02-11T06:00:59.598Z,85.95
2023-02-11T06:04:01.637Z,85.75
2023-02-11T06:07:04.147Z,86.06
2023-02-11T06:10:06.621Z,85.57
2023-02-11T06:13:08.554Z,85.33
2023-02-11T06:16:10.473Z,84.87
2023-02-11T06:19:13.139Z,85.48
2023-02-11T06:22:15.382Z,85.11
2023-02-11T06:25:17.436Z,84.50
2023-02-11T06:28:19.750Z,85.00
2023-02-11T06:31:22.111Z,85.46
2023-02-11T06:34:24.134Z,84.96
2023-02-11T06:37:25.961Z,84.51
2023-02-11T06:40:27.807Z,85.09
2023-02-11T06:43:29.658Z,85.04
2023-02-11T06:46:31.909Z,84.88
2023-02-11T06:49:33.844Z,85.10
2023-02-11T06:52:35.662Z,84.73
2023-02-11T06:55:37.578Z,85.25
2023-02-11T06:58:39.758Z,85.20
2023-02-11T07:01:41.711Z,84.16
2023-02-11T07:04:44.062Z,84.43
2023-02-11T07:07:46.010Z,84.36
2023-02-11T07:10:47.975Z,83.48
2023-02-11T07:13:51.387Z,83.83
2023-02-11T07:16:53.255Z,84.02
2023-02-11T07:19:55.083Z,84.54
2023-02-11T07:22:57.044Z,83.22
2023-02-11T07:26:03.669Z,83.82
2023-02-11T07:29:05.790Z,83.96
2023-02-11T07:32:07.674Z,82.99
2023-02-11T07:35:09.562Z,82.63
2023-02-11T07:38:11.387Z,82.33
2023-02-11T07:41:16.013Z,82.52
2023-02-11T07:44:17.866Z,82.48
2023-02-11T07:47:19.879Z,83.08
2023-02-11T07:50:21.998Z,82.50
2023-02-11T07:53:24.070Z,82.81
2023-02-11T07:56:26.387Z,82.88
2023-02-11T07:59:28.722Z,82.15
2023-02-11T08:02:30.583Z,82.14
2023-02-11T08:05:32.425Z,82.86
2023-02-11T08:08:34.612Z,82.63
2023-02-11T08:11:37.005Z,83.16
2023-02-11T08:14:39.036Z,83.30
2023-02-11T08:17:41.007Z,82.82
2023-02-11T08:20:43.018Z,83.10
2023-02-11T08:23:46.428Z,83.56
2023-02-11T08:26:48.769Z,82.36
2023-02-11T08:29:50.690Z,82.88
2023-02-11T08:32:52.776Z,82.29
2023-02-11T08:35:54.624Z,81.34
2023-02-11T08:39:16.084Z,81.81
2023-02-11T08:42:21.979Z,80.76
2023-02-11T08:45:23.918Z,80.42
2023-02-11T08:48:26.274Z,81.67
2023-02-11T08:51:33.040Z,81.29
2023-02-11T08:54:35.035Z,81.37
2023-02-11T08:57:36.985Z,81.75
2023-02-11T09:00:38.943Z,81.58
2023-02-11T09:03:41.183Z,80.84
2023-02-11T09:06:43.240Z,80.95
2023-02-11T09:09:45.248Z,80.34
2023-02-11T09:12:47.171Z,79.68
2023-02-11T09:15:49.040Z,80.83
2023-02-11T09:18:53.669Z,79.30
2023-02-11T09:21:55.959Z,80.12
2023-02-11T09:24:57.926Z,80.47
2023-02-11T09:27:59.847Z,80.52
2023-02-11T09:31:09.247Z,79.77
2023-02-11T09:34:11.870Z,80.48
2023-02-11T09:37:13.953Z,78.86
2023-02-11T09:40:16.880Z,79.77
2023-02-11T09:43:22.720Z,79.65
2023-02-11T09:46:27.688Z,78.28
2023-02-11T09:49:44.383Z,76.77
2023-02-11T09:53:07.614Z,76.62
2023-02-11T09:56:14.836Z,78.28
2023-02-11T09:59:17.682Z,76.90
2023-02-11T10:02:24.127Z,77.84
2023-02-11T10:05:52.541Z,77.08
2023-02-11T10:09:11.857Z,76.96
2023-02-11T10:12:37.547Z,76.79
2023-02-11T10:16:08.403Z,76.58
2023-02-11T10:19:19.314Z,76.52
2023-02-11T10:22:43.139Z,76.21
2023-02-11T10:25:49.116Z,77.40
2023-02-11T10:28:54.371Z,76.55
2023-02-11T10:31:58.558Z,74.71
2023-02-11T10:35:04.367Z,75.24
2023-02-11T10:38:06.330Z,74.42
2023-02-11T10:41:15.315Z,73.14
2023-02-11T10:44:30.136Z,74.48
2023-02-11T10:47:39.669Z,73.53
2023-02-11T10:50:41.535Z,73.03
2023-02-11T10:53:43.725Z,73.60
2023-02-11T10:56:50.224Z,72.75
2023-02-11T10:59:58.363Z,72.41
2023-02-11T11:03:01.945Z,71.77
2023-02-11T11:06:09.328Z,72.64
2023-02-11T11:09:28.839Z,72.44
2023-02-11T11:12:35.092Z,71.43
2023-02-11T11:15:37.028Z,72.00
2023-02-11T11:18:40.597Z,71.92
2023-02-11T12:07:32.735Z,68.54
2023-02-11T12:10:55.362Z,68.53
2023-02-11T12:14:40.161Z,67.44
2023-02-11T12:17:51.091Z,66.82
2023-02-11T12:21:30.326Z,66.13
2023-02-11T12:24:42.557Z,66.51
2023-02-11T12:28:13.562Z,66.20
2023-02-11T12:31:24.277Z,66.40
2023-02-11T12:34:50.666Z,65.70
2023-02-11T12:38:08.381Z,64.29
2023-02-11T12:41:46.344Z,64.56
2023-02-11T12:45:12.856Z,63.32
2023-02-11T12:48:45.393Z,63.28
2023-02-11T12:51:50.377Z,64.58
2023-02-11T12:55:09.459Z,64.02
2023-02-11T12:58:35.644Z,64.12
2023-02-11T13:01:45.191Z,64.95
2023-02-11T13:04:54.257Z,63.96
2023-02-11T13:08:04.624Z,63.80
2023-02-11T13:11:17.278Z,63.68
2023-02-11T13:14:24.525Z,64.08
2023-02-11T13:17:34.951Z,64.40
2023-02-11T13:21:03.581Z,64.33
2023-02-11T13:24:13.480Z,64.38
2023-02-11T13:27:41.510Z,63.75
2023-02-11T13:30:51.410Z,63.80
2023-02-11T13:33:53.824Z,63.97
2023-02-11T13:36:57.414Z,63.36
2023-02-11T13:40:21.224Z,63.02
2023-02-11T13:43:28.423Z,62.98
2023-02-11T13:46:54.167Z,64.09
2023-02-11T13:49:57.013Z,63.82
2023-02-11T13:53:01.278Z,64.59
2023-02-11T13:56:11.413Z,63.18
2023-02-11T13:59:25.872Z,63.13
2023-02-11T14:02:56.045Z,63.85
2023-02-11T14:06:28.804Z,62.79
2023-02-11T14:09:37.064Z,62.67
2023-02-11T14:12:39.348Z,62.76
2023-02-11T14:15:41.209Z,62.31
2023-02-11T14:18:49.352Z,62.87
2023-02-11T14:21:53.666Z,63.48
2023-02-11T14:25:04.726Z,62.27
2023-02-11T14:28:22.372Z,62.53
2023-02-11T14:31:36.106Z,62.70
2023-02-11T14:34:46.688Z,64.13
2023-02-11T14:37:55.860Z,64.50
2023-02-11T14:41:10.854Z,64.79
2023-02-11T14:44:27.926Z,64.08
2023-02-11T14:47:46.553Z,64.47
2023-02-11T14:51:10.653Z,65.66
2023-02-11T14:54:17.362Z,65.90
2023-02-11T14:57:20.556Z,66.36
2023-02-11T15:00:23.117Z,66.20
2023-02-11T15:03:31.993Z,67.36
2023-02-11T15:06:39.974Z,67.37
2023-02-11T15:09:45.712Z,67.46
2023-02-11T15:12:49.358Z,68.08
2023-02-11T15:15:56.294Z,68.11
2023-02-11T15:19:02.821Z,68.11
2023-02-11T15:22:07.331Z,68.36
2023-02-11T15:25:15.027Z,68.92
2023-02-11T15:28:28.993Z,69.78
2023-02-11T15:31:33.867Z,70.16
2023-02-11T15:34:37.553Z,71.65
2023-02-11T15:37:40.723Z,72.75
2023-02-11T15:40:55.956Z,72.40
2023-02-11T15:43:57.918Z,72.97
2023-02-11T15:47:00.367Z,73.95
2023-02-11T15:50:03.097Z,73.22
2023-02-11T15:53:24.340Z,73.81
2023-02-11T15:56:30.589Z,74.24
2023-02-11T15:59:39.322Z,74.09
2023-02-11T16:02:46.675Z,74.35
2023-02-11T16:05:48.958Z,74.23
2023-02-11T16:09:06.301Z,73.83
2023-02-11T16:12:27.207Z,73.79
2023-02-11T16:15:50.926Z,73.89
2023-02-11T16:19:04.851Z,73.70
2023-02-11T16:22:10.603Z,73.19
2023-02-11T16:25:20.759Z,72.75
2023-02-11T16:28:23.004Z,72.93
2023-02-11T16:31:33.530Z,73.47
2023-02-11T16:34:36.547Z,73.41
2023-02-11T16:37:38.624Z,73.46
2023-02-11T16:40:41.148Z,73.69
2023-02-11T16:43:43.263Z,73.69
2023-02-11T16:46:45.670Z,73.64
2023-02-11T16:49:47.997Z,74.03
2023-02-11T16:52:52.299Z,73.49
2023-02-11T16:55:54.203Z,73.44
2023-02-11T16:58:56.564Z,73.42
2023-02-11T17:01:58.545Z,72.27
2023-02-11T17:05:03.445Z,72.25
2023-02-11T17:08:06.483Z,72.11
2023-02-11T17:11:08.615Z,72.51
2023-02-11T17:14:10.762Z,72.80
2023-02-11T17:17:13.910Z,71.63
2023-02-11T17:20:16.427Z,72.39
2023-02-11T17:23:18.491Z,72.76
2023-02-11T17:26:20.643Z,72.20
2023-02-11T17:29:24.533Z,72.19
2023-02-11T17:32:26.677Z,72.75
2023-02-11T17:35:28.847Z,72.94
2023-02-11T17:38:30.880Z,73.00
2023-02-11T17:41:33.302Z,72.76
2023-02-11T17:44:35.769Z,73.79
2023-02-11T17:47:37.997Z,73.42
2023-02-11T17:50:40.079Z,73.87
2023-02-11T17:53:42.230Z,73.55
2023-02-11T17:56:45.438Z,73.77
2023-02-11T17:59:48.032Z,73.67
2023-02-11T18:02:50.377Z,73.58
2023-02-11T18:09:12.072Z,74.51
2023-02-11T18:12:14.345Z,74.42
2023-02-11T18:15:16.608Z,74.64
2023-02-11T18:18:18.432Z,74.24
2023-02-11T18:21:22.355Z,74.30
2023-02-11T18:24:24.479Z,74.83
2023-02-11T18:27:28.108Z,73.87
2023-02-11T18:30:33.913Z,74.42
2023-02-11T18:33:37.587Z,74.12
2023-02-11T18:36:39.846Z,74.61
2023-02-11T18:39:42.909Z,74.56
2023-02-11T18:42:46.273Z,74.67
2023-02-11T18:45:50.489Z,75.98
2023-02-11T18:48:56.001Z,75.22
2023-02-11T18:51:58.868Z,74.93
2023-02-11T18:55:01.006Z,74.96
2023-02-11T18:58:03.207Z,75.47
2023-02-11T19:01:27.564Z,75.34
2023-02-11T19:04:29.841Z,74.65
2023-02-11T19:07:32.587Z,74.66
2023-02-11T19:10:34.840Z,74.15
2023-02-11T19:13:37.421Z,74.27
2023-02-11T19:16:41.909Z,74.62
2023-02-11T19:19:44.059Z,74.94
2023-02-11T19:22:46.170Z,74.99
2023-02-11T19:25:48.607Z,74.07
2023-02-11T19:28:50.735Z,73.96
2023-02-11T19:31:53.043Z,73.67
2023-02-11T19:34:55.276Z,73.71
2023-02-11T19:37:57.411Z,74.99
2023-02-11T19:40:59.508Z,74.75
2023-02-11T19:44:02.868Z,75.08
2023-02-11T19:47:06.964Z,74.84
2023-02-11T19:50:09.618Z,75.42
2023-02-11T19:53:11.749Z,75.16
2023-02-11T19:56:15.502Z,74.67
2023-02-11T19:59:17.711Z,74.50
2023-02-11T20:02:20.794Z,74.12
2023-02-11T20:05:22.991Z,74.44
2023-02-11T20:08:24.953Z,74.27
2023-02-11T20:11:28.899Z,73.86
2023-02-11T20:14:31.684Z,74.38
2023-02-11T20:17:33.931Z,73.71
2023-02-11T20:20:41.304Z,73.38
2023-02-11T20:23:46.506Z,73.59
2023-02-11T20:26:49.349Z,74.33
2023-02-11T20:29:51.540Z,73.74
2023-02-11T20:32:53.450Z,73.11
2023-02-11T20:35:57.997Z,72.35
2023-02-11T20:39:01.208Z,72.88
2023-02-11T20:42:03.810Z,73.88
2023-02-11T20:45:06.082Z,73.42
2023-02-11T20:48:08.304Z,74.51
2023-02-11T20:51:17.535Z,75.05
2023-02-11T20:54:21.007Z,73.98
2023-02-11T20:57:23.147Z,73.01
2023-02-11T21:00:25.642Z,72.35
2023-02-11T21:03:27.771Z,74.64
2023-02-11T21:06:39.987Z,73.67
2023-02-11T21:09:42.371Z,72.84
2023-02-11T21:12:44.540Z,72.39
2023-02-11T21:15:46.407Z,72.24
2023-02-11T21:18:52.465Z,72.43
2023-02-11T21:21:57.273Z,72.57
2023-02-11T21:25:01.056Z,73.40
2023-02-11T21:28:03.616Z,72.49
2023-02-11T21:31:05.817Z,73.29
2023-02-11T21:34:08.620Z,73.12
2023-02-11T21:37:10.670Z,73.06
2023-02-11T21:40:14.830Z,72.23
2023-02-11T21:43:16.946Z,72.79
2023-02-11T21:46:19.846Z,72.80
2023-02-11T21:49:21.836Z,72.61
2023-02-11T21:52:24.171Z,73.33
2023-02-11T21:55:26.279Z,73.29
2023-02-11T21:58:28.322Z,74.38
2023-02-11T22:01:35.233Z,73.86
2023-02-11T22:04:37.168Z,74.33
2023-02-11T22:07:39.086Z,74.28
2023-02-11T22:10:41.076Z,74.03
2023-02-11T22:13:43.187Z,74.81
2023-02-11T22:16:47.561Z,75.03
2023-02-11T22:19:50.042Z,75.82
2023-02-11T22:22:51.966Z,75.92
2023-02-11T22:25:54.103Z,75.65
2023-02-11T22:28:56.924Z,75.94
2023-02-11T22:31:59.398Z,75.76
2023-02-11T22:35:01.368Z,75.65
2023-02-11T22:38:04.504Z,75.51
2023-02-11T22:41:09.177Z,75.96
2023-02-11T22:44:12.014Z,76.37
2023-02-11T22:47:13.911Z,76.25
2023-02-11T22:50:16.190Z,75.38
2023-02-11T22:53:18.514Z,76.33
2023-02-11T22:56:20.664Z,77.44
2023-02-11T22:59:22.837Z,76.47
2023-02-11T23:02:24.837Z,76.00
2023-02-11T23:05:27.391Z,77.42
2023-02-11T23:08:30.967Z,76.32
2023-02-11T23:11:33.794Z,77.12
2023-02-11T23:14:35.954Z,75.34
2023-02-11T23:17:37.827Z,75.95
2023-02-11T23:20:42.842Z,75.39
2023-02-11T23:23:45.237Z,74.27
2023-02-11T23:26:47.128Z,73.79
2023-02-11T23:29:49.585Z,74.11
2023-02-11T23:32:52.750Z,73.68
2023-02-11T23:35:54.936Z,73.78
2023-02-11T23:38:56.990Z,74.74
2023-02-11T23:41:59.606Z,75.02
2023-02-11T23:45:01.896Z,75.22
2023-02-11T23:48:10.349Z,74.56
2023-02-11T23:51:12.240Z,74.31
2023-02-11T23:54:14.799Z,73.98
2023-02-11T23:57:16.942Z,74.00
